sensor_id;sensor_type;location;lat;lon;timestamp;P1;durP1;ratioP1;P2;durP2;ratioP2
58137;SDS011;43955;47.362;18.930;2023-01-23T00:01:23;22.05;;;11.82;;
58137;SDS011;43955;47.362;18.930;2023-01-23T00:03:53;31.20;;;12.23;;
58137;SDS011;43955;47.362;18.930;2023-01-23T00:06:21;31.90;;;13.82;;
58137;SDS011;43955;47.362;18.930;2023-01-23T00:08:49;30.15;;;14.02;;
58137;SDS011;43955;47.362;18.930;2023-01-23T00:11:21;29.52;;;13.05;;
58137;SDS011;43955;47.362;18.930;2023-01-23T00:13:50;28.53;;;11.93;;
58137;SDS011;43955;47.362;18.930;2023-01-23T00:16:20;27.15;;;10.75;;
58137;SDS011;43955;47.362;18.930;2023-01-23T00:18:47;27.60;;;13.05;;
58137;SDS011;43955;47.362;18.930;2023-01-23T00:21:20;25.90;;;11.23;;
58137;SDS011;43955;47.362;18.930;2023-01-23T00:23:50;27.13;;;12.73;;
58137;SDS011;43955;47.362;18.930;2023-01-23T00:26:19;30.17;;;13.30;;
58137;SDS011;43955;47.362;18.930;2023-01-23T00:28:49;27.05;;;11.88;;
58137;SDS011;43955;47.362;18.930;2023-01-23T00:31:18;32.88;;;12.98;;
58137;SDS011;43955;47.362;18.930;2023-01-23T00:33:51;27.45;;;11.07;;
58137;SDS011;43955;47.362;18.930;2023-01-23T00:36:21;33.60;;;13.40;;
58137;SDS011;43955;47.362;18.930;2023-01-23T00:38:49;45.63;;;17.45;;
58137;SDS011;43955;47.362;18.930;2023-01-23T00:41:16;54.20;;;21.23;;
58137;SDS011;43955;47.362;18.930;2023-01-23T00:43:44;51.45;;;21.70;;
58137;SDS011;43955;47.362;18.930;2023-01-23T00:46:13;43.45;;;23.30;;
58137;SDS011;43955;47.362;18.930;2023-01-23T00:48:40;42.92;;;17.58;;
58137;SDS011;43955;47.362;18.930;2023-01-23T00:51:08;34.65;;;14.70;;
58137;SDS011;43955;47.362;18.930;2023-01-23T00:53:35;60.65;;;30.77;;
58137;SDS011;43955;47.362;18.930;2023-01-23T00:56:02;51.30;;;19.87;;
58137;SDS011;43955;47.362;18.930;2023-01-23T00:58:30;39.13;;;16.02;;
58137;SDS011;43955;47.362;18.930;2023-01-23T01:00:57;29.37;;;12.18;;
58137;SDS011;43955;47.362;18.930;2023-01-23T01:03:25;38.35;;;21.25;;
58137;SDS011;43955;47.362;18.930;2023-01-23T01:05:52;31.83;;;15.55;;
58137;SDS011;43955;47.362;18.930;2023-01-23T01:08:20;32.88;;;14.45;;
58137;SDS011;43955;47.362;18.930;2023-01-23T01:10:47;28.02;;;13.48;;
58137;SDS011;43955;47.362;18.930;2023-01-23T01:13:16;37.17;;;15.65;;
58137;SDS011;43955;47.362;18.930;2023-01-23T01:15:48;22.17;;;12.05;;
58137;SDS011;43955;47.362;18.930;2023-01-23T01:18:17;27.65;;;12.70;;
58137;SDS011;43955;47.362;18.930;2023-01-23T01:20:44;25.83;;;13.18;;
58137;SDS011;43955;47.362;18.930;2023-01-23T01:23:12;21.70;;;11.60;;
58137;SDS011;43955;47.362;18.930;2023-01-23T01:25:39;25.58;;;12.73;;
58137;SDS011;43955;47.362;18.930;2023-01-23T01:28:06;25.05;;;12.57;;
58137;SDS011;43955;47.362;18.930;2023-01-23T01:30:34;22.62;;;11.23;;
58137;SDS011;43955;47.362;18.930;2023-01-23T01:33:03;23.77;;;10.88;;
58137;SDS011;43955;47.362;18.930;2023-01-23T01:35:30;58.08;;;23.30;;
58137;SDS011;43955;47.362;18.930;2023-01-23T01:37:58;43.78;;;20.17;;
58137;SDS011;43955;47.362;18.930;2023-01-23T01:40:28;89.28;;;42.10;;
58137;SDS011;43955;47.362;18.930;2023-01-23T01:42:59;34.85;;;19.48;;
58137;SDS011;43955;47.362;18.930;2023-01-23T01:48:23;18.30;;;9.68;;
58137;SDS011;43955;47.362;18.930;2023-01-23T01:50:51;20.42;;;10.20;;
58137;SDS011;43955;47.362;18.930;2023-01-23T01:53:20;27.17;;;16.73;;
58137;SDS011;43955;47.362;18.930;2023-01-23T01:55:48;23.05;;;11.90;;
58137;SDS011;43955;47.362;18.930;2023-01-23T01:58:16;17.25;;;9.32;;
58137;SDS011;43955;47.362;18.930;2023-01-23T02:00:44;15.57;;;7.75;;
58137;SDS011;43955;47.362;18.930;2023-01-23T02:03:11;20.70;;;9.60;;
58137;SDS011;43955;47.362;18.930;2023-01-23T02:05:40;16.25;;;8.10;;
58137;SDS011;43955;47.362;18.930;2023-01-23T02:10:49;14.20;;;7.07;;
58137;SDS011;43955;47.362;18.930;2023-01-23T02:15:54;14.93;;;8.80;;
58137;SDS011;43955;47.362;18.930;2023-01-23T02:18:22;15.07;;;7.65;;
58137;SDS011;43955;47.362;18.930;2023-01-23T02:20:50;14.80;;;6.85;;
58137;SDS011;43955;47.362;18.930;2023-01-23T02:25:58;11.35;;;6.70;;
58137;SDS011;43955;47.362;18.930;2023-01-23T02:28:40;13.65;;;7.10;;
58137;SDS011;43955;47.362;18.930;2023-01-23T02:31:08;14.07;;;6.28;;
58137;SDS011;43955;47.362;18.930;2023-01-23T02:36:04;8.15;;;5.18;;
58137;SDS011;43955;47.362;18.930;2023-01-23T02:41:36;10.23;;;4.37;;
58137;SDS011;43955;47.362;18.930;2023-01-23T02:44:11;8.18;;;4.18;;
58137;SDS011;43955;47.362;18.930;2023-01-23T02:46:53;7.53;;;3.90;;
58137;SDS011;43955;47.362;18.930;2023-01-23T02:49:24;7.57;;;3.92;;
58137;SDS011;43955;47.362;18.930;2023-01-23T02:51:52;7.22;;;3.80;;
58137;SDS011;43955;47.362;18.930;2023-01-23T02:54:20;6.32;;;3.60;;
58137;SDS011;43955;47.362;18.930;2023-01-23T02:56:49;7.60;;;3.35;;
58137;SDS011;43955;47.362;18.930;2023-01-23T02:59:16;6.68;;;3.08;;
58137;SDS011;43955;47.362;18.930;2023-01-23T03:02:02;6.55;;;2.67;;
58137;SDS011;43955;47.362;18.930;2023-01-23T03:04:31;7.47;;;2.92;;
58137;SDS011;43955;47.362;18.930;2023-01-23T03:06:58;6.65;;;3.15;;
58137;SDS011;43955;47.362;18.930;2023-01-23T03:09:26;5.20;;;3.05;;
58137;SDS011;43955;47.362;18.930;2023-01-23T03:11:53;4.68;;;3.25;;
58137;SDS011;43955;47.362;18.930;2023-01-23T03:14:21;5.78;;;3.20;;
58137;SDS011;43955;47.362;18.930;2023-01-23T03:16:51;6.20;;;2.90;;
58137;SDS011;43955;47.362;18.930;2023-01-23T03:19:21;5.22;;;2.42;;
58137;SDS011;43955;47.362;18.930;2023-01-23T03:21:50;5.90;;;2.55;;
58137;SDS011;43955;47.362;18.930;2023-01-23T03:24:18;5.28;;;2.85;;
58137;SDS011;43955;47.362;18.930;2023-01-23T03:26:46;5.93;;;2.58;;
58137;SDS011;43955;47.362;18.930;2023-01-23T03:29:16;5.60;;;2.75;;
58137;SDS011;43955;47.362;18.930;2023-01-23T03:32:06;3.45;;;2.40;;
58137;SDS011;43955;47.362;18.930;2023-01-23T03:34:35;5.53;;;3.10;;
58137;SDS011;43955;47.362;18.930;2023-01-23T03:37:03;5.37;;;3.10;;
58137;SDS011;43955;47.362;18.930;2023-01-23T03:39:31;4.82;;;2.78;;
58137;SDS011;43955;47.362;18.930;2023-01-23T03:42:18;6.00;;;2.60;;
58137;SDS011;43955;47.362;18.930;2023-01-23T03:44:46;4.68;;;2.67;;
58137;SDS011;43955;47.362;18.930;2023-01-23T03:47:14;4.95;;;3.08;;
58137;SDS011;43955;47.362;18.930;2023-01-23T03:49:41;5.43;;;3.03;;
58137;SDS011;43955;47.362;18.930;2023-01-23T03:52:09;5.28;;;2.83;;
58137;SDS011;43955;47.362;18.930;2023-01-23T03:54:36;5.00;;;2.85;;
58137;SDS011;43955;47.362;18.930;2023-01-23T03:57:04;4.93;;;3.30;;
58137;SDS011;43955;47.362;18.930;2023-01-23T03:59:33;5.15;;;3.28;;
58137;SDS011;43955;47.362;18.930;2023-01-23T04:02:00;5.70;;;2.72;;
58137;SDS011;43955;47.362;18.930;2023-01-23T04:04:32;7.85;;;3.30;;
58137;SDS011;43955;47.362;18.930;2023-01-23T04:07:01;5.22;;;2.67;;
58137;SDS011;43955;47.362;18.930;2023-01-23T04:09:29;5.05;;;2.92;;
58137;SDS011;43955;47.362;18.930;2023-01-23T04:11:57;4.18;;;2.37;;
58137;SDS011;43955;47.362;18.930;2023-01-23T04:14:25;5.62;;;2.95;;
58137;SDS011;43955;47.362;18.930;2023-01-23T04:16:53;6.50;;;3.53;;
58137;SDS011;43955;47.362;18.930;2023-01-23T04:19:20;5.87;;;2.53;;
58137;SDS011;43955;47.362;18.930;2023-01-23T04:21:48;5.32;;;3.42;;
58137;SDS011;43955;47.362;18.930;2023-01-23T04:24:16;6.95;;;3.40;;
58137;SDS011;43955;47.362;18.930;2023-01-23T04:26:43;6.30;;;2.60;;
58137;SDS011;43955;47.362;18.930;2023-01-23T04:29:11;5.60;;;2.33;;
58137;SDS011;43955;47.362;18.930;2023-01-23T04:31:38;5.90;;;2.62;;
58137;SDS011;43955;47.362;18.930;2023-01-23T04:34:06;5.15;;;2.60;;
58137;SDS011;43955;47.362;18.930;2023-01-23T04:36:35;5.18;;;2.92;;
58137;SDS011;43955;47.362;18.930;2023-01-23T04:39:02;6.32;;;3.40;;
58137;SDS011;43955;47.362;18.930;2023-01-23T04:41:31;5.65;;;3.17;;
58137;SDS011;43955;47.362;18.930;2023-01-23T04:43:59;5.10;;;2.65;;
58137;SDS011;43955;47.362;18.930;2023-01-23T04:46:47;4.78;;;2.60;;
58137;SDS011;43955;47.362;18.930;2023-01-23T04:49:16;4.65;;;2.50;;
58137;SDS011;43955;47.362;18.930;2023-01-23T04:51:45;4.85;;;2.50;;
58137;SDS011;43955;47.362;18.930;2023-01-23T04:54:15;5.87;;;3.28;;
58137;SDS011;43955;47.362;18.930;2023-01-23T04:56:43;4.82;;;2.58;;
58137;SDS011;43955;47.362;18.930;2023-01-23T04:59:12;4.55;;;2.78;;
58137;SDS011;43955;47.362;18.930;2023-01-23T05:01:41;5.40;;;3.10;;
58137;SDS011;43955;47.362;18.930;2023-01-23T05:04:09;4.43;;;2.78;;
58137;SDS011;43955;47.362;18.930;2023-01-23T05:06:36;4.75;;;2.50;;
58137;SDS011;43955;47.362;18.930;2023-01-23T05:09:04;7.47;;;2.60;;
58137;SDS011;43955;47.362;18.930;2023-01-23T05:11:32;4.80;;;2.72;;
58137;SDS011;43955;47.362;18.930;2023-01-23T05:13:59;5.97;;;3.05;;
58137;SDS011;43955;47.362;18.930;2023-01-23T05:16:27;4.00;;;2.40;;
58137;SDS011;43955;47.362;18.930;2023-01-23T05:18:56;5.40;;;2.90;;
58137;SDS011;43955;47.362;18.930;2023-01-23T05:21:23;5.45;;;2.83;;
58137;SDS011;43955;47.362;18.930;2023-01-23T05:23:50;6.20;;;2.75;;
58137;SDS011;43955;47.362;18.930;2023-01-23T05:26:18;6.40;;;3.10;;
58137;SDS011;43955;47.362;18.930;2023-01-23T05:28:46;5.05;;;2.53;;
58137;SDS011;43955;47.362;18.930;2023-01-23T05:31:13;4.97;;;2.92;;
58137;SDS011;43955;47.362;18.930;2023-01-23T05:33:41;5.35;;;2.58;;
58137;SDS011;43955;47.362;18.930;2023-01-23T05:36:09;6.20;;;2.50;;
58137;SDS011;43955;47.362;18.930;2023-01-23T05:38:37;5.47;;;2.75;;
58137;SDS011;43955;47.362;18.930;2023-01-23T05:41:04;4.80;;;2.47;;
58137;SDS011;43955;47.362;18.930;2023-01-23T05:43:33;4.72;;;2.60;;
58137;SDS011;43955;47.362;18.930;2023-01-23T05:46:01;4.85;;;2.90;;
58137;SDS011;43955;47.362;18.930;2023-01-23T05:48:29;10.50;;;5.18;;
58137;SDS011;43955;47.362;18.930;2023-01-23T05:50:56;7.05;;;4.72;;
58137;SDS011;43955;47.362;18.930;2023-01-23T05:53:24;8.20;;;3.95;;
58137;SDS011;43955;47.362;18.930;2023-01-23T05:55:52;6.70;;;3.50;;
58137;SDS011;43955;47.362;18.930;2023-01-23T05:58:19;8.80;;;3.25;;
58137;SDS011;43955;47.362;18.930;2023-01-23T06:00:48;6.95;;;3.30;;
58137;SDS011;43955;47.362;18.930;2023-01-23T06:03:17;6.25;;;3.87;;
58137;SDS011;43955;47.362;18.930;2023-01-23T06:05:44;5.37;;;3.17;;
58137;SDS011;43955;47.362;18.930;2023-01-23T06:08:12;6.05;;;3.03;;
58137;SDS011;43955;47.362;18.930;2023-01-23T06:10:40;6.22;;;3.22;;
58137;SDS011;43955;47.362;18.930;2023-01-23T06:13:07;5.55;;;3.08;;
58137;SDS011;43955;47.362;18.930;2023-01-23T06:15:35;4.32;;;2.40;;
58137;SDS011;43955;47.362;18.930;2023-01-23T06:18:03;7.37;;;2.78;;
58137;SDS011;43955;47.362;18.930;2023-01-23T06:20:31;5.45;;;2.47;;
58137;SDS011;43955;47.362;18.930;2023-01-23T06:22:59;8.23;;;2.67;;
58137;SDS011;43955;47.362;18.930;2023-01-23T06:25:27;5.15;;;2.70;;
58137;SDS011;43955;47.362;18.930;2023-01-23T06:27:54;7.35;;;2.50;;
58137;SDS011;43955;47.362;18.930;2023-01-23T06:30:21;4.25;;;2.60;;
58137;SDS011;43955;47.362;18.930;2023-01-23T06:32:49;5.65;;;2.67;;
58137;SDS011;43955;47.362;18.930;2023-01-23T06:35:18;5.45;;;3.42;;
58137;SDS011;43955;47.362;18.930;2023-01-23T06:37:45;5.57;;;2.47;;
58137;SDS011;43955;47.362;18.930;2023-01-23T06:40:13;7.22;;;3.28;;
58137;SDS011;43955;47.362;18.930;2023-01-23T06:42:42;6.18;;;3.20;;
58137;SDS011;43955;47.362;18.930;2023-01-23T06:45:10;7.25;;;3.80;;
58137;SDS011;43955;47.362;18.930;2023-01-23T06:47:37;5.55;;;2.92;;
58137;SDS011;43955;47.362;18.930;2023-01-23T06:50:05;7.43;;;2.78;;
58137;SDS011;43955;47.362;18.930;2023-01-23T06:52:34;6.78;;;2.97;;
58137;SDS011;43955;47.362;18.930;2023-01-23T06:55:02;4.95;;;2.70;;
58137;SDS011;43955;47.362;18.930;2023-01-23T06:57:29;7.87;;;3.58;;
58137;SDS011;43955;47.362;18.930;2023-01-23T06:59:57;8.10;;;3.60;;
58137;SDS011;43955;47.362;18.930;2023-01-23T07:02:25;7.85;;;3.30;;
58137;SDS011;43955;47.362;18.930;2023-01-23T07:04:53;6.47;;;3.37;;
58137;SDS011;43955;47.362;18.930;2023-01-23T07:07:20;6.80;;;3.22;;
58137;SDS011;43955;47.362;18.930;2023-01-23T07:09:48;4.37;;;2.78;;
58137;SDS011;43955;47.362;18.930;2023-01-23T07:12:16;5.05;;;2.85;;
58137;SDS011;43955;47.362;18.930;2023-01-23T07:14:43;5.03;;;2.75;;
58137;SDS011;43955;47.362;18.930;2023-01-23T07:17:11;4.03;;;2.75;;
58137;SDS011;43955;47.362;18.930;2023-01-23T07:19:38;4.65;;;2.95;;
58137;SDS011;43955;47.362;18.930;2023-01-23T07:22:06;6.55;;;3.25;;
58137;SDS011;43955;47.362;18.930;2023-01-23T07:24:33;8.43;;;2.83;;
58137;SDS011;43955;47.362;18.930;2023-01-23T07:27:01;6.55;;;3.50;;
58137;SDS011;43955;47.362;18.930;2023-01-23T07:29:28;6.60;;;2.92;;
58137;SDS011;43955;47.362;18.930;2023-01-23T07:31:57;6.35;;;2.92;;
58137;SDS011;43955;47.362;18.930;2023-01-23T07:34:24;5.50;;;2.60;;
58137;SDS011;43955;47.362;18.930;2023-01-23T07:36:51;5.65;;;2.90;;
58137;SDS011;43955;47.362;18.930;2023-01-23T07:39:18;6.80;;;3.20;;
58137;SDS011;43955;47.362;18.930;2023-01-23T07:41:46;6.62;;;3.62;;
58137;SDS011;43955;47.362;18.930;2023-01-23T07:44:15;6.18;;;3.35;;
58137;SDS011;43955;47.362;18.930;2023-01-23T07:46:45;8.45;;;3.55;;
58137;SDS011;43955;47.362;18.930;2023-01-23T07:49:13;6.75;;;3.30;;
58137;SDS011;43955;47.362;18.930;2023-01-23T07:51:41;8.80;;;3.95;;
58137;SDS011;43955;47.362;18.930;2023-01-23T07:54:08;5.30;;;3.35;;
58137;SDS011;43955;47.362;18.930;2023-01-23T07:56:36;6.35;;;3.65;;
58137;SDS011;43955;47.362;18.930;2023-01-23T07:59:03;13.13;;;3.85;;
58137;SDS011;43955;47.362;18.930;2023-01-23T08:01:30;10.48;;;3.95;;
58137;SDS011;43955;47.362;18.930;2023-01-23T08:03:58;10.13;;;3.37;;
58137;SDS011;43955;47.362;18.930;2023-01-23T08:06:25;8.90;;;3.45;;
58137;SDS011;43955;47.362;18.930;2023-01-23T08:08:52;6.22;;;3.28;;
58137;SDS011;43955;47.362;18.930;2023-01-23T08:11:19;11.50;;;3.80;;
58137;SDS011;43955;47.362;18.930;2023-01-23T08:13:47;7.78;;;3.42;;
58137;SDS011;43955;47.362;18.930;2023-01-23T08:16:16;8.55;;;3.80;;
58137;SDS011;43955;47.362;18.930;2023-01-23T08:18:43;9.23;;;3.55;;
58137;SDS011;43955;47.362;18.930;2023-01-23T08:21:10;8.38;;;3.90;;
58137;SDS011;43955;47.362;18.930;2023-01-23T08:23:38;7.65;;;3.75;;
58137;SDS011;43955;47.362;18.930;2023-01-23T08:26:07;7.15;;;3.40;;
58137;SDS011;43955;47.362;18.930;2023-01-23T08:28:35;7.20;;;3.83;;
58137;SDS011;43955;47.362;18.930;2023-01-23T08:31:04;8.35;;;3.95;;
58137;SDS011;43955;47.362;18.930;2023-01-23T08:33:33;11.15;;;4.40;;
58137;SDS011;43955;47.362;18.930;2023-01-23T08:36:01;8.77;;;4.12;;
58137;SDS011;43955;47.362;18.930;2023-01-23T08:38:29;5.45;;;3.83;;
58137;SDS011;43955;47.362;18.930;2023-01-23T08:40:58;8.00;;;3.97;;
58137;SDS011;43955;47.362;18.930;2023-01-23T08:43:26;7.72;;;4.03;;
58137;SDS011;43955;47.362;18.930;2023-01-23T08:45:55;6.47;;;3.90;;
58137;SDS011;43955;47.362;18.930;2023-01-23T08:48:24;9.55;;;3.95;;
58137;SDS011;43955;47.362;18.930;2023-01-23T08:50:57;7.28;;;3.85;;
58137;SDS011;43955;47.362;18.930;2023-01-23T08:55:57;6.80;;;4.22;;
58137;SDS011;43955;47.362;18.930;2023-01-23T08:58:25;9.95;;;4.40;;
58137;SDS011;43955;47.362;18.930;2023-01-23T09:00:53;7.20;;;4.10;;
58137;SDS011;43955;47.362;18.930;2023-01-23T09:03:21;8.98;;;4.68;;
58137;SDS011;43955;47.362;18.930;2023-01-23T09:05:48;10.07;;;4.80;;
58137;SDS011;43955;47.362;18.930;2023-01-23T09:08:15;12.45;;;4.35;;
58137;SDS011;43955;47.362;18.930;2023-01-23T09:10:43;11.55;;;4.80;;
58137;SDS011;43955;47.362;18.930;2023-01-23T09:13:10;8.80;;;5.12;;
58137;SDS011;43955;47.362;18.930;2023-01-23T09:15:38;9.20;;;4.60;;
58137;SDS011;43955;47.362;18.930;2023-01-23T09:18:05;8.02;;;4.47;;
58137;SDS011;43955;47.362;18.930;2023-01-23T09:20:32;10.73;;;4.80;;
58137;SDS011;43955;47.362;18.930;2023-01-23T09:23:00;9.68;;;5.18;;
58137;SDS011;43955;47.362;18.930;2023-01-23T09:25:27;10.40;;;5.37;;
58137;SDS011;43955;47.362;18.930;2023-01-23T09:27:57;7.47;;;4.68;;
58137;SDS011;43955;47.362;18.930;2023-01-23T09:30:24;11.50;;;5.62;;
58137;SDS011;43955;47.362;18.930;2023-01-23T09:32:52;10.20;;;5.57;;
58137;SDS011;43955;47.362;18.930;2023-01-23T09:35:19;8.15;;;5.00;;
58137;SDS011;43955;47.362;18.930;2023-01-23T09:37:47;7.78;;;4.15;;
58137;SDS011;43955;47.362;18.930;2023-01-23T09:41:13;7.97;;;4.43;;
58137;SDS011;43955;47.362;18.930;2023-01-23T09:45:56;6.80;;;4.18;;
58137;SDS011;43955;47.362;18.930;2023-01-23T09:48:30;9.30;;;3.60;;
58137;SDS011;43955;47.362;18.930;2023-01-23T09:53:52;9.68;;;3.58;;
58137;SDS011;43955;47.362;18.930;2023-01-23T09:59:10;5.95;;;3.50;;
58137;SDS011;43955;47.362;18.930;2023-01-23T10:01:39;7.72;;;3.22;;
58137;SDS011;43955;47.362;18.930;2023-01-23T10:04:09;5.62;;;3.53;;
58137;SDS011;43955;47.362;18.930;2023-01-23T10:14:37;6.43;;;2.95;;
58137;SDS011;43955;47.362;18.930;2023-01-23T10:17:13;7.30;;;3.67;;
58137;SDS011;43955;47.362;18.930;2023-01-23T10:27:47;6.72;;;3.20;;
58137;SDS011;43955;47.362;18.930;2023-01-23T10:30:28;6.55;;;3.78;;
58137;SDS011;43955;47.362;18.930;2023-01-23T10:33:10;7.70;;;3.95;;
58137;SDS011;43955;47.362;18.930;2023-01-23T10:35:49;5.93;;;3.30;;
58137;SDS011;43955;47.362;18.930;2023-01-23T10:41:10;8.35;;;4.10;;
58137;SDS011;43955;47.362;18.930;2023-01-23T10:43:44;6.62;;;4.05;;
58137;SDS011;43955;47.362;18.930;2023-01-23T10:46:14;9.55;;;3.55;;
58137;SDS011;43955;47.362;18.930;2023-01-23T10:48:52;9.52;;;3.72;;
58137;SDS011;43955;47.362;18.930;2023-01-23T10:54:14;8.65;;;3.28;;
58137;SDS011;43955;47.362;18.930;2023-01-23T10:59:36;10.43;;;3.87;;
58137;SDS011;43955;47.362;18.930;2023-01-23T11:04:41;10.30;;;3.87;;
58137;SDS011;43955;47.362;18.930;2023-01-23T11:12:16;4.97;;;2.97;;
58137;SDS011;43955;47.362;18.930;2023-01-23T11:14:48;9.73;;;3.60;;
58137;SDS011;43955;47.362;18.930;2023-01-23T11:17:18;5.82;;;4.00;;
58137;SDS011;43955;47.362;18.930;2023-01-23T11:19:51;7.45;;;3.60;;
58137;SDS011;43955;47.362;18.930;2023-01-23T11:22:30;6.35;;;3.85;;
58137;SDS011;43955;47.362;18.930;2023-01-23T11:28:01;6.30;;;3.42;;
58137;SDS011;43955;47.362;18.930;2023-01-23T11:33:48;5.40;;;3.33;;
58137;SDS011;43955;47.362;18.930;2023-01-23T11:39:04;6.28;;;3.58;;
58137;SDS011;43955;47.362;18.930;2023-01-23T11:41:43;7.55;;;3.67;;
58137;SDS011;43955;47.362;18.930;2023-01-23T11:44:15;7.95;;;3.28;;
58137;SDS011;43955;47.362;18.930;2023-01-23T11:55:16;12.05;;;4.00;;
58137;SDS011;43955;47.362;18.930;2023-01-23T12:00:51;12.20;;;3.62;;
58137;SDS011;43955;47.362;18.930;2023-01-23T12:09:11;8.45;;;4.18;;
58137;SDS011;43955;47.362;18.930;2023-01-23T12:16:55;10.15;;;3.67;;
58137;SDS011;43955;47.362;18.930;2023-01-23T12:39:58;5.78;;;3.35;;
58137;SDS011;43955;47.362;18.930;2023-01-23T12:43:09;7.35;;;3.40;;
58137;SDS011;43955;47.362;18.930;2023-01-23T12:53:12;5.68;;;3.30;;
58137;SDS011;43955;47.362;18.930;2023-01-23T12:55:54;8.88;;;4.30;;
58137;SDS011;43955;47.362;18.930;2023-01-23T12:58:24;10.13;;;3.90;;
58137;SDS011;43955;47.362;18.930;2023-01-23T13:01:14;9.05;;;3.35;;
58137;SDS011;43955;47.362;18.930;2023-01-23T13:12:25;8.68;;;3.33;;
58137;SDS011;43955;47.362;18.930;2023-01-23T13:15:20;7.82;;;3.80;;
58137;SDS011;43955;47.362;18.930;2023-01-23T13:28:45;8.95;;;4.00;;
58137;SDS011;43955;47.362;18.930;2023-01-23T13:33:54;7.12;;;3.70;;
58137;SDS011;43955;47.362;18.930;2023-01-23T13:36:36;10.38;;;4.37;;
58137;SDS011;43955;47.362;18.930;2023-01-23T13:41:50;6.60;;;3.80;;
58137;SDS011;43955;47.362;18.930;2023-01-23T13:48:29;6.03;;;3.90;;
58137;SDS011;43955;47.362;18.930;2023-01-23T13:51:28;8.38;;;3.90;;
58137;SDS011;43955;47.362;18.930;2023-01-23T13:54:21;11.63;;;3.85;;
58137;SDS011;43955;47.362;18.930;2023-01-23T13:57:25;24.73;;;6.95;;
58137;SDS011;43955;47.362;18.930;2023-01-23T14:00:11;8.10;;;4.20;;
58137;SDS011;43955;47.362;18.930;2023-01-23T14:06:36;6.40;;;3.58;;
58137;SDS011;43955;47.362;18.930;2023-01-23T14:09:29;8.27;;;4.25;;
58137;SDS011;43955;47.362;18.930;2023-01-23T14:12:11;11.50;;;3.92;;
58137;SDS011;43955;47.362;18.930;2023-01-23T14:14:52;8.68;;;3.95;;
58137;SDS011;43955;47.362;18.930;2023-01-23T14:17:52;9.35;;;3.60;;
58137;SDS011;43955;47.362;18.930;2023-01-23T14:20:33;6.57;;;3.65;;
58137;SDS011;43955;47.362;18.930;2023-01-23T14:25:55;5.50;;;3.75;;
58137;SDS011;43955;47.362;18.930;2023-01-23T14:28:23;8.23;;;3.87;;
58137;SDS011;43955;47.362;18.930;2023-01-23T14:30:51;10.38;;;4.00;;
58137;SDS011;43955;47.362;18.930;2023-01-23T14:33:40;9.40;;;3.83;;
58137;SDS011;43955;47.362;18.930;2023-01-23T14:36:13;5.95;;;3.50;;
58137;SDS011;43955;47.362;18.930;2023-01-23T14:38:42;7.70;;;4.15;;
58137;SDS011;43955;47.362;18.930;2023-01-23T14:41:11;10.60;;;4.20;;
58137;SDS011;43955;47.362;18.930;2023-01-23T14:43:39;12.85;;;4.53;;
58137;SDS011;43955;47.362;18.930;2023-01-23T14:46:15;11.10;;;4.32;;
58137;SDS011;43955;47.362;18.930;2023-01-23T14:48:48;9.23;;;3.92;;
58137;SDS011;43955;47.362;18.930;2023-01-23T14:51:24;10.05;;;3.97;;
58137;SDS011;43955;47.362;18.930;2023-01-23T14:54:02;8.90;;;4.10;;
58137;SDS011;43955;47.362;18.930;2023-01-23T14:59:05;6.57;;;3.20;;
58137;SDS011;43955;47.362;18.930;2023-01-23T15:01:55;6.03;;;4.62;;
58137;SDS011;43955;47.362;18.930;2023-01-23T15:04:24;8.70;;;4.00;;
58137;SDS011;43955;47.362;18.930;2023-01-23T15:06:55;11.95;;;3.50;;
58137;SDS011;43955;47.362;18.930;2023-01-23T15:09:30;7.65;;;3.97;;
58137;SDS011;43955;47.362;18.930;2023-01-23T15:14:34;8.07;;;3.70;;
58137;SDS011;43955;47.362;18.930;2023-01-23T15:17:04;6.18;;;3.42;;
58137;SDS011;43955;47.362;18.930;2023-01-23T15:19:42;5.50;;;3.25;;
58137;SDS011;43955;47.362;18.930;2023-01-23T15:22:19;8.60;;;3.85;;
58137;SDS011;43955;47.362;18.930;2023-01-23T15:24:54;7.60;;;3.55;;
58137;SDS011;43955;47.362;18.930;2023-01-23T15:33:22;7.93;;;4.15;;
58137;SDS011;43955;47.362;18.930;2023-01-23T15:35:51;6.80;;;3.97;;
58137;SDS011;43955;47.362;18.930;2023-01-23T15:38:19;9.50;;;3.75;;
58137;SDS011;43955;47.362;18.930;2023-01-23T15:40:46;11.95;;;4.18;;
58137;SDS011;43955;47.362;18.930;2023-01-23T15:43:14;9.68;;;4.97;;
58137;SDS011;43955;47.362;18.930;2023-01-23T15:45:45;32.38;;;5.50;;
58137;SDS011;43955;47.362;18.930;2023-01-23T15:48:12;16.42;;;5.32;;
58137;SDS011;43955;47.362;18.930;2023-01-23T15:50:39;11.50;;;5.25;;
58137;SDS011;43955;47.362;18.930;2023-01-23T15:53:11;9.30;;;4.47;;
58137;SDS011;43955;47.362;18.930;2023-01-23T15:55:39;13.73;;;9.30;;
58137;SDS011;43955;47.362;18.930;2023-01-23T15:58:10;7.97;;;4.10;;
58137;SDS011;43955;47.362;18.930;2023-01-23T16:00:39;9.45;;;4.60;;
58137;SDS011;43955;47.362;18.930;2023-01-23T16:03:07;7.22;;;3.53;;
58137;SDS011;43955;47.362;18.930;2023-01-23T16:05:35;7.57;;;4.03;;
58137;SDS011;43955;47.362;18.930;2023-01-23T16:08:04;8.73;;;4.45;;
58137;SDS011;43955;47.362;18.930;2023-01-23T16:10:34;6.05;;;3.97;;
58137;SDS011;43955;47.362;18.930;2023-01-23T16:13:02;10.63;;;5.47;;
58137;SDS011;43955;47.362;18.930;2023-01-23T16:15:31;11.77;;;4.57;;
58137;SDS011;43955;47.362;18.930;2023-01-23T16:18:00;11.30;;;4.47;;
58137;SDS011;43955;47.362;18.930;2023-01-23T16:20:31;5.75;;;3.80;;
58137;SDS011;43955;47.362;18.930;2023-01-23T16:23:02;11.35;;;4.62;;
58137;SDS011;43955;47.362;18.930;2023-01-23T16:25:41;13.30;;;6.12;;
58137;SDS011;43955;47.362;18.930;2023-01-23T16:30:39;11.75;;;6.20;;
58137;SDS011;43955;47.362;18.930;2023-01-23T16:33:07;14.70;;;6.10;;
58137;SDS011;43955;47.362;18.930;2023-01-23T16:35:35;10.73;;;5.90;;
58137;SDS011;43955;47.362;18.930;2023-01-23T16:38:02;8.77;;;5.10;;
58137;SDS011;43955;47.362;18.930;2023-01-23T16:40:30;14.48;;;5.20;;
58137;SDS011;43955;47.362;18.930;2023-01-23T16:42:58;12.75;;;7.47;;
58137;SDS011;43955;47.362;18.930;2023-01-23T16:45:29;22.02;;;7.45;;
58137;SDS011;43955;47.362;18.930;2023-01-23T16:47:57;18.35;;;7.95;;
58137;SDS011;43955;47.362;18.930;2023-01-23T16:50:27;17.92;;;7.68;;
58137;SDS011;43955;47.362;18.930;2023-01-23T16:55:33;21.45;;;8.90;;
58137;SDS011;43955;47.362;18.930;2023-01-23T16:58:09;19.62;;;9.85;;
58137;SDS011;43955;47.362;18.930;2023-01-23T17:00:41;13.48;;;8.65;;
58137;SDS011;43955;47.362;18.930;2023-01-23T17:03:09;16.40;;;10.00;;
58137;SDS011;43955;47.362;18.930;2023-01-23T17:05:38;15.80;;;9.20;;
58137;SDS011;43955;47.362;18.930;2023-01-23T17:08:16;14.35;;;8.90;;
58137;SDS011;43955;47.362;18.930;2023-01-23T17:10:48;14.18;;;7.75;;
58137;SDS011;43955;47.362;18.930;2023-01-23T17:13:18;18.20;;;8.48;;
58137;SDS011;43955;47.362;18.930;2023-01-23T17:15:47;19.37;;;7.80;;
58137;SDS011;43955;47.362;18.930;2023-01-23T17:18:25;18.67;;;9.43;;
58137;SDS011;43955;47.362;18.930;2023-01-23T17:20:53;27.75;;;11.45;;
58137;SDS011;43955;47.362;18.930;2023-01-23T17:23:21;24.35;;;10.70;;
58137;SDS011;43955;47.362;18.930;2023-01-23T17:25:52;20.45;;;11.85;;
58137;SDS011;43955;47.362;18.930;2023-01-23T17:28:27;25.17;;;11.30;;
58137;SDS011;43955;47.362;18.930;2023-01-23T17:30:55;19.60;;;10.07;;
58137;SDS011;43955;47.362;18.930;2023-01-23T17:33:27;17.92;;;10.00;;
58137;SDS011;43955;47.362;18.930;2023-01-23T17:35:57;16.58;;;9.80;;
58137;SDS011;43955;47.362;18.930;2023-01-23T17:38:26;22.58;;;10.98;;